Time;durP1;ratioP1;P1;durP2;ratioP2;P2;SDS_P1;SDS_P2;PMS_P1;PMS_P2;Temp;Humidity;BMP_temperature;BMP_pressure;BME280_temperature;BME280_humidity;BME280_pressure;Samples;Min_cycle;Max_cycle;Signal;HPM_P1;HPM_P2
2023/03/27 00:00:15;;;;;;;;;;;11.10;99.90;;;;;;5073459;28;19916;-74
2023/03/27 00:02:41;;;;;;;;;;;11.00;99.90;;;;;;5073269;28;20439;-74
2023/03/27 00:05:07;;;;;;;;;;;11.00;99.90;;;;;;5073232;28;19910;-74
2023/03/27 00:07:34;;;;;;;;;;;11.00;99.90;;;;;;5073040;28;20377;-74
2023/03/27 00:10:00;;;;;;;;;;;11.10;99.90;;;;;;5073191;28;19962;-74
2023/03/27 00:12:26;;;;;;;;;;;11.10;99.90;;;;;;5073179;28;20376;-74
2023/03/27 00:14:52;;;;;;;;;;;11.10;99.90;;;;;;5073139;28;19909;-74
2023/03/27 00:17:18;;;;;;;;;;;11.00;99.90;;;;;;5072950;28;19916;-74
2023/03/27 00:19:43;;;;;;;;;;;11.00;99.90;;;;;;5072908;28;20281;-75
2023/03/27 00:22:09;;;;;;;;;;;11.00;99.90;;;;;;5073472;28;20395;-74
2023/03/27 00:24:36;;;;;;;;;;;10.90;99.90;;;;;;5071512;28;19909;-74
2023/03/27 00:27:01;;;;;;;;;;;10.90;99.90;;;;;;5072044;28;19958;-74
2023/03/27 00:29:27;;;;;;;;;;;10.90;99.90;;;;;;5072215;28;19984;-74
2023/03/27 00:31:53;;;;;;;;;;;11.00;99.90;;;;;;5071491;28;20388;-75
2023/03/27 00:34:18;;;;;;;;;;;10.90;99.90;;;;;;5073279;28;19961;-74
2023/03/27 00:36:49;;;;;;;;;;;10.90;99.90;;;;;;5073045;28;19947;-75
2023/03/27 00:39:15;;;;;;;;;;;10.90;99.90;;;;;;5003750;28;1968451;-75
2023/03/27 00:41:41;;;;;;;;;;;11.00;99.90;;;;;;5073433;28;20011;-75
2023/03/27 00:44:24;;;;;;;;;;;11.00;99.90;;;;;;5073644;28;20312;-75
2023/03/27 00:46:53;;;;;;;;;;;10.90;99.90;;;;;;5073776;28;20291;-74
2023/03/27 00:49:20;;;;;;;;;;;10.90;99.90;;;;;;5073393;28;20361;-74
2023/03/27 00:51:47;;;;;;;;;;;10.90;99.90;;;;;;5073497;28;19996;-74
2023/03/27 00:54:15;;;;;;;;;;;10.90;99.90;;;;;;5073410;28;19943;-75
2023/03/27 00:56:40;;;;;;;;;;;11.00;99.90;;;;;;5073663;28;20327;-75
2023/03/27 00:59:12;;;;;;;;;;;11.00;99.90;;;;;;5073371;28;19912;-74
2023/03/27 01:01:38;;;;;;;;;;;11.00;99.90;;;;;;5073265;28;20407;-75
2023/03/27 01:04:05;;;;;;;;;;;11.00;99.90;;;;;;5073723;28;19908;-75
2023/03/27 01:06:31;;;;;;;;;;;11.00;99.90;;;;;;5073455;28;19909;-74
2023/03/27 01:08:56;;;;;;;;;;;11.00;99.90;;;;;;5073825;28;20383;-74
2023/03/27 01:11:25;;;;;;;;;;;11.10;99.90;;;;;;5073297;28;19908;-75
2023/03/27 01:14:09;;;;;;;;;;;11.00;99.90;;;;;;5073485;28;19961;-76
2023/03/27 01:16:38;;;;;;;;;;;10.90;99.90;;;;;;5073143;28;19909;-75
2023/03/27 01:19:23;;;;;;;;;;;11.00;99.90;;;;;;5073108;28;19909;-74
2023/03/27 01:22:08;;;;;;;;;;;10.90;99.90;;;;;;5073176;28;19912;-75
2023/03/27 01:24:52;;;;;;;;;;;10.90;99.90;;;;;;5073104;28;20368;-75
2023/03/27 01:27:36;;;;;;;;;;;10.90;99.90;;;;;;5073109;28;19908;-75
2023/03/27 01:30:08;;;;;;;;;;;11.00;99.90;;;;;;5071722;28;20019;-74
2023/03/27 01:32:52;;;;;;;;;;;11.00;99.90;;;;;;5073379;28;19909;-75
2023/03/27 01:35:31;;;;;;;;;;;10.90;99.90;;;;;;5072980;28;19908;-74
2023/03/27 01:38:01;;;;;;;;;;;10.90;99.90;;;;;;5071697;28;20369;-74
2023/03/27 01:40:45;;;;;;;;;;;10.90;99.90;;;;;;5075828;28;19920;-74
2023/03/27 01:43:16;;;;;;;;;;;10.70;99.90;;;;;;5075130;28;19961;-74
2023/03/27 01:45:56;;;;;;;;;;;10.70;99.90;;;;;;5076995;28;19932;-75
2023/03/27 01:48:40;;;;;;;;;;;10.80;99.90;;;;;;5075083;28;19955;-75
2023/03/27 01:51:13;;;;;;;;;;;10.70;99.90;;;;;;5076293;28;20407;-74
2023/03/27 01:53:45;;;;;;;;;;;10.70;99.90;;;;;;5076774;28;19957;-75
2023/03/27 01:56:17;;;;;;;;;;;10.70;99.90;;;;;;5076438;28;20389;-74
2023/03/27 01:58:45;;;;;;;;;;;10.60;99.90;;;;;;5076116;28;19957;-74
2023/03/27 02:01:13;;;;;;;;;;;10.60;99.90;;;;;;5076087;28;19917;-74
2023/03/27 02:03:46;;;;;;;;;;;10.50;99.90;;;;;;5075040;28;19958;-74
2023/03/27 02:06:12;;;;;;;;;;;10.60;99.90;;;;;;5076622;28;19947;-73
2023/03/27 02:08:43;;;;;;;;;;;10.60;99.90;;;;;;5075986;28;19944;-74
2023/03/27 02:11:10;;;;;;;;;;;10.70;99.90;;;;;;5075812;28;19919;-75
2023/03/27 02:13:40;;;;;;;;;;;10.70;99.90;;;;;;5075903;28;19908;-75
2023/03/27 02:16:08;;;;;;;;;;;10.60;99.90;;;;;;5075877;28;19909;-76
2023/03/27 02:18:36;;;;;;;;;;;10.40;99.90;;;;;;5074527;28;20308;-74
2023/03/27 02:21:02;;;;;;;;;;;10.50;99.90;;;;;;5075791;28;19912;-74
2023/03/27 02:23:29;;;;;;;;;;;10.40;99.90;;;;;;5075670;28;19909;-75
2023/03/27 02:25:55;;;;;;;;;;;10.40;99.90;;;;;;5076028;28;19915;-74
2023/03/27 02:28:24;;;;;;;;;;;10.30;99.90;;;;;;5075886;28;20284;-73
2023/03/27 02:30:49;;;;;;;;;;;10.20;99.90;;;;;;5074302;28;20147;-75
2023/03/27 02:33:40;;;;;;;;;;;10.10;99.90;;;;;;5075492;28;19944;-75
2023/03/27 02:36:15;;;;;;;;;;;10.20;99.90;;;;;;5075708;28;19915;-74
2023/03/27 02:38:45;;;;;;;;;;;10.30;99.90;;;;;;5075697;28;19963;-75
2023/03/27 02:41:37;;;;;;;;;;;10.30;99.90;;;;;;5075071;28;19920;-74
2023/03/27 02:44:02;;;;;;;;;;;10.40;99.90;;;;;;5074111;28;19909;-74
2023/03/27 02:46:44;;;;;;;;;;;10.40;99.90;;;;;;5075283;28;20003;-74
2023/03/27 02:49:14;;;;;;;;;;;10.50;99.90;;;;;;5075304;28;20262;-74
2023/03/27 02:51:46;;;;;;;;;;;10.40;99.90;;;;;;5074623;28;19994;-74
2023/03/27 02:54:18;;;;;;;;;;;10.20;99.90;;;;;;5075269;28;19908;-75
2023/03/27 02:56:48;;;;;;;;;;;10.10;99.90;;;;;;5075226;28;20345;-75
2023/03/27 02:59:17;;;;;;;;;;;10.00;99.90;;;;;;5075258;28;20276;-75
2023/03/27 03:01:44;;;;;;;;;;;9.90;99.90;;;;;;5073575;28;19923;-75
2023/03/27 03:04:15;;;;;;;;;;;9.80;99.90;;;;;;5073604;28;19911;-74
2023/03/27 03:06:41;;;;;;;;;;;9.90;99.90;;;;;;5073559;28;19909;-75
2023/03/27 03:09:08;;;;;;;;;;;10.00;99.90;;;;;;5074763;28;19908;-73
2023/03/27 03:11:35;;;;;;;;;;;10.00;99.90;;;;;;5075247;28;19908;-74
2023/03/27 03:14:00;;;;;;;;;;;9.90;99.90;;;;;;5074581;28;20392;-74
2023/03/27 03:16:27;;;;;;;;;;;9.80;99.90;;;;;;5073468;28;19908;-75
2023/03/27 03:18:52;;;;;;;;;;;9.80;99.90;;;;;;5074711;28;19909;-75
2023/03/27 03:21:18;;;;;;;;;;;9.80;99.90;;;;;;5074460;28;19919;-75
2023/03/27 03:23:44;;;;;;;;;;;9.80;99.90;;;;;;5074953;28;19948;-73
2023/03/27 03:26:11;;;;;;;;;;;9.90;99.90;;;;;;5074687;28;20387;-74
2023/03/27 03:28:36;;;;;;;;;;;10.00;99.90;;;;;;5074629;28;19909;-74
2023/03/27 03:31:03;;;;;;;;;;;10.00;99.90;;;;;;5074540;28;19909;-74
2023/03/27 03:33:29;;;;;;;;;;;10.10;99.90;;;;;;5073077;28;19987;-75
2023/03/27 03:35:59;;;;;;;;;;;10.20;99.90;;;;;;5074273;28;20356;-74
2023/03/27 03:38:26;;;;;;;;;;;10.20;99.90;;;;;;5074377;28;19909;-75
2023/03/27 03:40:53;;;;;;;;;;;10.10;99.90;;;;;;5073930;28;20315;-76
2023/03/27 03:43:20;;;;;;;;;;;10.10;99.90;;;;;;5074403;28;19913;-74
2023/03/27 03:45:45;;;;;;;;;;;10.20;99.90;;;;;;5074136;28;19991;-74
2023/03/27 03:48:11;;;;;;;;;;;10.10;99.90;;;;;;5074422;28;19996;-74
2023/03/27 03:50:36;;;;;;;;;;;10.10;99.90;;;;;;5074018;28;19908;-74
2023/03/27 03:53:02;;;;;;;;;;;10.10;99.90;;;;;;5074025;28;19987;-75
2023/03/27 03:55:28;;;;;;;;;;;10.10;99.90;;;;;;5073977;28;19909;-75
2023/03/27 03:57:54;;;;;;;;;;;10.20;99.90;;;;;;5073930;28;19909;-74
2023/03/27 04:00:21;;;;;;;;;;;10.10;99.90;;;;;;5074253;28;19924;-75
2023/03/27 04:02:51;;;;;;;;;;;10.10;99.90;;;;;;5072380;28;19915;-75
2023/03/27 04:05:16;;;;;;;;;;;10.10;99.90;;;;;;5074140;28;19909;-74
2023/03/27 04:07:42;;;;;;;;;;;9.90;99.90;;;;;;5073826;28;19970;-74
2023/03/27 04:10:08;;;;;;;;;;;9.90;99.90;;;;;;5073798;28;19915;-75
2023/03/27 04:12:34;;;;;;;;;;;10.00;99.90;;;;;;5073940;28;20324;-75
2023/03/27 04:14:59;;;;;;;;;;;10.00;99.90;;;;;;5073792;28;19962;-75
2023/03/27 04:17:25;;;;;;;;;;;9.80;99.90;;;;;;5073839;28;19909;-74
2023/03/27 04:19:53;;;;;;;;;;;9.60;99.90;;;;;;5073645;28;20007;-76
2023/03/27 04:22:21;;;;;;;;;;;9.20;99.90;;;;;;5073927;28;19951;-75
2023/03/27 04:24:49;;;;;;;;;;;9.00;99.90;;;;;;5073999;28;19944;-75
2023/03/27 04:27:15;;;;;;;;;;;9.00;99.90;;;;;;5073642;28;19916;-75
2023/03/27 04:29:41;;;;;;;;;;;9.10;99.90;;;;;;5073667;28;20312;-76
2023/03/27 04:32:08;;;;;;;;;;;9.20;99.90;;;;;;5073856;28;19908;-74
2023/03/27 04:34:37;;;;;;;;;;;9.30;99.90;;;;;;5073807;28;19913;-75
2023/03/27 04:37:03;;;;;;;;;;;9.40;99.90;;;;;;5073520;28;19909;-74
2023/03/27 04:39:28;;;;;;;;;;;9.40;99.90;;;;;;5071980;28;20051;-75
2023/03/27 04:41:54;;;;;;;;;;;9.30;99.90;;;;;;5073527;28;19946;-75
2023/03/27 04:44:20;;;;;;;;;;;9.30;99.90;;;;;;5073444;28;19913;-75
2023/03/27 04:46:49;;;;;;;;;;;9.20;99.90;;;;;;5073697;28;19908;-76
2023/03/27 04:49:17;;;;;;;;;;;9.20;99.90;;;;;;5073705;28;19947;-74
2023/03/27 04:51:44;;;;;;;;;;;9.30;99.90;;;;;;5073513;28;20304;-73
2023/03/27 04:54:09;;;;;;;;;;;9.30;99.90;;;;;;5073298;28;20320;-75
2023/03/27 04:56:35;;;;;;;;;;;9.30;99.90;;;;;;5073242;28;19958;-75
2023/03/27 04:59:02;;;;;;;;;;;9.20;99.90;;;;;;5073339;28;19915;-74
2023/03/27 05:01:28;;;;;;;;;;;9.00;99.90;;;;;;5071949;28;20014;-74
2023/03/27 05:03:53;;;;;;;;;;;8.90;1.00;;;;;;5073457;28;19996;-75
2023/03/27 05:06:19;;;;;;;;;;;8.80;1.00;;;;;;5073221;28;20359;-75
2023/03/27 05:08:45;;;;;;;;;;;8.70;1.00;;;;;;5073358;28;19909;-75
2023/03/27 05:11:10;;;;;;;;;;;8.60;1.00;;;;;;5072983;28;19908;-75
2023/03/27 05:13:36;;;;;;;;;;;8.70;1.00;;;;;;5073485;28;20314;-75
2023/03/27 05:16:02;;;;;;;;;;;8.70;1.00;;;;;;5092697;28;19916;-75
2023/03/27 05:18:29;;;;;;;;;;;8.80;1.00;;;;;;5077254;28;19912;-75
2023/03/27 05:20:58;;;;;;;;;;;8.80;1.00;;;;;;5076850;28;19912;-75
2023/03/27 05:23:26;;;;;;;;;;;8.60;1.00;;;;;;5076879;28;19908;-74
2023/03/27 05:25:55;;;;;;;;;;;8.50;1.00;;;;;;5076808;28;20049;-74
2023/03/27 05:28:21;;;;;;;;;;;8.60;1.00;;;;;;5077114;28;19999;-74
2023/03/27 05:30:47;;;;;;;;;;;8.70;1.00;;;;;;5076814;28;19915;-74
2023/03/27 05:33:13;;;;;;;;;;;8.90;1.00;;;;;;5076665;28;19912;-75
2023/03/27 05:35:40;;;;;;;;;;;8.90;1.00;;;;;;5076790;28;19914;-75
2023/03/27 05:38:07;;;;;;;;;;;8.90;1.00;;;;;;5075463;28;19951;-75
2023/03/27 05:40:33;;;;;;;;;;;8.80;1.00;;;;;;5076438;28;19920;-74
2023/03/27 05:42:59;;;;;;;;;;;8.80;99.90;;;;;;5076664;28;20369;-75
2023/03/27 05:45:25;;;;;;;;;;;8.60;99.90;;;;;;5076441;28;19971;-75
2023/03/27 05:47:55;;;;;;;;;;;8.40;99.90;;;;;;5076433;28;19908;-74
2023/03/27 05:50:28;;;;;;;;;;;8.20;99.90;;;;;;5076494;28;19912;-74
2023/03/27 05:52:55;;;;;;;;;;;8.10;1.00;;;;;;5074966;28;19929;-74
2023/03/27 05:55:20;;;;;;;;;;;8.00;1.00;;;;;;5076420;28;19919;-74
2023/03/27 05:57:46;;;;;;;;;;;8.00;1.00;;;;;;5076380;28;20284;-75
2023/03/27 06:00:15;;;;;;;;;;;8.00;1.00;;;;;;5076105;28;19966;-73
2023/03/27 06:02:42;;;;;;;;;;;8.00;1.00;;;;;;5076526;28;19919;-74
2023/03/27 06:05:14;;;;;;;;;;;8.20;1.00;;;;;;5076464;28;20372;-74
2023/03/27 06:07:43;;;;;;;;;;;8.30;1.00;;;;;;5076368;28;19908;-75
2023/03/27 06:10:10;;;;;;;;;;;8.50;1.00;;;;;;5076379;28;20349;-76
2023/03/27 06:12:35;;;;;;;;;;;8.60;1.00;;;;;;5075962;28;19908;-75
2023/03/27 06:15:03;;;;;;;;;;;8.50;1.00;;;;;;5074407;28;19909;-74
2023/03/27 06:17:28;;;;;;;;;;;8.50;1.00;;;;;;5075906;28;20261;-75
2023/03/27 06:19:55;;;;;;;;;;;8.50;1.00;;;;;;5075738;28;19934;-75
2023/03/27 06:22:20;;;;;;;;;;;8.60;1.00;;;;;;5076157;28;19961;-75
2023/03/27 06:24:46;;;;;;;;;;;8.90;1.00;;;;;;5075702;28;19908;-75
2023/03/27 06:27:12;;;;;;;;;;;9.10;99.90;;;;;;5075749;28;19908;-76
2023/03/27 06:29:37;;;;;;;;;;;9.20;99.90;;;;;;5075611;28;19912;-74
2023/03/27 06:32:03;;;;;;;;;;;9.70;99.90;;;;;;5075975;28;20430;-75
2023/03/27 06:34:29;;;;;;;;;;;10.00;99.90;;;;;;5075526;28;19915;-74
2023/03/27 06:36:54;;;;;;;;;;;10.40;99.90;;;;;;5075862;28;19908;-74
2023/03/27 06:39:20;;;;;;;;;;;10.80;99.90;;;;;;5075303;28;19919;-74
2023/03/27 06:41:46;;;;;;;;;;;11.10;99.90;;;;;;5075430;28;19908;-75
2023/03/27 06:44:11;;;;;;;;;;;10.90;99.90;;;;;;5075262;28;19974;-75
2023/03/27 06:46:37;;;;;;;;;;;11.60;99.90;;;;;;5075429;28;20349;-75
2023/03/27 06:49:02;;;;;;;;;;;11.90;99.90;;;;;;5073958;28;19999;-75
2023/03/27 06:51:28;;;;;;;;;;;12.00;99.90;;;;;;5075447;28;19908;-74
2023/03/27 06:53:54;;;;;;;;;;;11.70;99.90;;;;;;5075281;28;20369;-76
2023/03/27 06:56:19;;;;;;;;;;;11.80;99.90;;;;;;5075283;28;19915;-75
2023/03/27 06:58:45;;;;;;;;;;;11.90;99.90;;;;;;5075014;28;19909;-75
2023/03/27 07:01:11;;;;;;;;;;;12.60;99.90;;;;;;5074922;28;19916;-75
2023/03/27 07:03:37;;;;;;;;;;;13.30;99.90;;;;;;5074970;28;19908;-74
2023/03/27 07:06:03;;;;;;;;;;;14.10;99.90;;;;;;5075314;28;19916;-75
2023/03/27 07:08:29;;;;;;;;;;;;;;;;;;5074921;28;19909;-75
2023/03/27 07:10:55;;;;;;;;;;;14.30;99.90;;;;;;5074850;28;19915;-75
2023/03/27 07:13:20;;;;;;;;;;;13.80;99.90;;;;;;5074843;28;19934;-75
2023/03/27 07:15:46;;;;;;;;;;;13.20;99.90;;;;;;5075122;28;19913;-74
2023/03/27 07:18:14;;;;;;;;;;;12.90;99.90;;;;;;5074719;28;19916;-75
2023/03/27 07:20:39;;;;;;;;;;;;;;;;;;5073261;28;20372;-74
2023/03/27 07:23:05;;;;;;;;;;;;;;;;;;5074550;28;19908;-76
2023/03/27 07:25:35;;;;;;;;;;;;;;;;;;5074702;28;19909;-75
2023/03/27 07:28:01;;;;;;;;;;;;;;;;;;5073205;28;19909;-74
2023/03/27 07:30:27;;;;;;;;;;;;;;;;;;5074509;28;19909;-74
2023/03/27 07:32:53;;;;;;;;;;;;;;;;;;5074396;28;19916;-75
2023/03/27 07:35:19;;;;;;;;;;;;;;;;;;5074433;28;19909;-74
2023/03/27 07:37:45;;;;;;;;;;;12.40;99.90;;;;;;5072475;28;19967;-75
2023/03/27 07:40:14;;;;;;;;;;;12.30;99.90;;;;;;5074273;28;19928;-74
2023/03/27 07:42:47;;;;;;;;;;;12.60;99.90;;;;;;5074218;28;19909;-75
2023/03/27 07:45:13;;;;;;;;;;;12.70;99.90;;;;;;5074280;28;19908;-76
2023/03/27 07:47:42;;;;;;;;;;;13.20;99.90;;;;;;5074424;28;20280;-75
2023/03/27 07:50:10;;;;;;;;;;;13.90;99.90;;;;;;5074097;28;19908;-75
2023/03/27 07:52:36;;;;;;;;;;;16.60;99.90;;;;;;5074159;28;19908;-74
2023/03/27 07:55:02;;;;;;;;;;;19.00;65.90;;;;;;5074169;28;19958;-76
2023/03/27 07:57:28;;;;;;;;;;;20.70;38.50;;;;;;5072887;28;19915;-75
2023/03/27 07:59:56;;;;;;;;;;;21.40;10.40;;;;;;5074349;28;19909;-75
2023/03/27 08:02:22;;;;;;;;;;;22.50;4.10;;;;;;5074079;28;19909;-76
2023/03/27 08:04:47;;;;;;;;;;;22.30;1.00;;;;;;5073922;28;19912;-77
2023/03/27 08:07:13;;;;;;;;;;;24.10;1.00;;;;;;5073891;28;19915;-76
2023/03/27 08:09:39;;;;;;;;;;;24.60;1.00;;;;;;5073840;28;19916;-76
2023/03/27 08:12:06;;;;;;;;;;;25.60;1.00;;;;;;5074073;28;19916;-76
2023/03/27 08:14:32;;;;;;;;;;;25.70;1.00;;;;;;5073914;28;19908;-76
2023/03/27 08:16:59;;;;;;;;;;;25.20;1.00;;;;;;5073800;28;20483;-76
2023/03/27 08:19:25;;;;;;;;;;;24.90;1.00;;;;;;5074236;28;19912;-75
2023/03/27 08:21:50;;;;;;;;;;;24.90;1.00;;;;;;5072327;28;19920;-76
2023/03/27 08:24:16;;;;;;;;;;;23.70;1.00;;;;;;5073927;28;19909;-76
2023/03/27 08:26:41;;;;;;;;;;;22.10;1.00;;;;;;5073596;28;19913;-75
2023/03/27 08:29:07;;;;;;;;;;;23.80;1.00;;;;;;5073655;28;19909;-76
2023/03/27 08:31:33;;;;;;;;;;;25.30;1.00;;;;;;5073788;28;19908;-76
2023/03/27 08:33:59;;;;;;;;;;;26.20;1.00;;;;;;5073881;28;20025;-76
2023/03/27 08:36:26;;;;;;;;;;;25.30;1.00;;;;;;5073674;28;19909;-77
2023/03/27 08:38:53;;;;;;;;;;;24.60;1.00;;;;;;5073658;28;20365;-75
2023/03/27 08:41:41;;;;;;;;;;;24.00;1.00;;;;;;5073292;28;19921;-75
2023/03/27 08:44:11;;;;;;;;;;;24.20;1.00;;;;;;5074178;28;19908;-77
2023/03/27 08:46:41;;;;;;;;;;;24.20;1.00;;;;;;5073578;28;20392;-76
2023/03/27 08:49:10;;;;;;;;;;;25.30;1.00;;;;;;5074617;28;19963;-76
2023/03/27 08:51:38;;;;;;;;;;;26.20;1.00;;;;;;5077496;28;19916;-76
2023/03/27 08:54:17;;;;;;;;;;;25.80;1.00;;;;;;5077824;28;19908;-76
2023/03/27 08:56:44;;;;;;;;;;;25.40;1.00;;;;;;5077348;28;19908;-75
2023/03/27 08:59:11;;;;;;;;;;;24.60;1.00;;;;;;5077363;28;20337;-75
2023/03/27 09:02:00;;;;;;;;;;;25.30;1.00;;;;;;5077318;28;19978;-77
2023/03/27 09:04:46;;;;;;;;;;;26.40;1.00;;;;;;5067135;28;19908;-76
2023/03/27 09:07:16;;;;;;;;;;;27.20;1.00;;;;;;5076890;28;19961;-76
2023/03/27 09:09:45;;;;;;;;;;;25.70;1.00;;;;;;5077334;28;19909;-78
2023/03/27 09:12:20;;;;;;;;;;;26.50;1.00;;;;;;5077429;28;19954;-76
2023/03/27 09:14:50;;;;;;;;;;;26.40;1.00;;;;;;5077049;28;19958;-76
2023/03/27 09:17:18;;;;;;;;;;;27.60;1.00;;;;;;5076714;28;19908;-76
2023/03/27 09:19:54;;;;;;;;;;;27.60;7.80;;;;;;5076847;28;19909;-77
2023/03/27 09:22:22;;;;;;;;;;;25.70;9.30;;;;;;5076856;28;19909;-76
2023/03/27 09:24:50;;;;;;;;;;;25.30;9.00;;;;;;5076969;28;19912;-77
2023/03/27 09:27:31;;;;;;;;;;;26.10;9.40;;;;;;5076803;28;20010;-77
2023/03/27 09:30:19;;;;;;;;;;;30.00;6.60;;;;;;5077006;28;19931;-77
2023/03/27 09:32:46;;;;;;;;;;;30.70;3.40;;;;;;5076605;28;20288;-76
2023/03/27 09:35:16;;;;;;;;;;;28.40;3.20;;;;;;5076899;28;19908;-76
2023/03/27 09:37:42;;;;;;;;;;;27.90;4.20;;;;;;5076577;28;20373;-77
2023/03/27 09:40:20;;;;;;;;;;;29.20;2.30;;;;;;5076414;28;20431;-77
2023/03/27 09:42:47;;;;;;;;;;;24.10;7.00;;;;;;5076983;28;19975;-74
2023/03/27 09:45:13;;;;;;;;;;;28.70;4.60;;;;;;5076459;28;19908;-77
2023/03/27 09:47:44;;;;;;;;;;;29.30;2.40;;;;;;5076489;28;20369;-76
2023/03/27 09:50:27;;;;;;;;;;;24.00;8.70;;;;;;5076748;28;19938;-76
2023/03/27 09:53:05;;;;;;;;;;;22.60;9.40;;;;;;5076494;28;20399;-76
2023/03/27 09:55:31;;;;;;;;;;;29.20;3.40;;;;;;5074766;28;20299;-77
2023/03/27 09:58:06;;;;;;;;;;;31.40;1.30;;;;;;5076418;28;19915;-76
2023/03/27 10:00:32;;;;;;;;;;;34.10;1.00;;;;;;5075847;28;20383;-75
2023/03/27 10:03:19;;;;;;;;;;;33.10;1.00;;;;;;5076221;28;19958;-75
2023/03/27 10:05:45;;;;;;;;;;;30.50;1.00;;;;;;5075924;28;19995;-73
2023/03/27 10:08:23;;;;;;;;;;;29.70;1.00;;;;;;5076149;28;19913;-75
2023/03/27 10:10:56;;;;;;;;;;;27.30;3.70;;;;;;5075920;28;19919;-76
2023/03/27 10:13:24;;;;;;;;;;;32.40;2.40;;;;;;5075981;28;20288;-75
2023/03/27 10:15:57;;;;;;;;;;;31.60;1.00;;;;;;5075951;28;19959;-74
2023/03/27 10:18:28;;;;;;;;;;;32.10;1.00;;;;;;5076020;28;19909;-73
2023/03/27 10:21:01;;;;;;;;;;;34.50;1.00;;;;;;5075910;28;19915;-75
2023/03/27 10:23:29;;;;;;;;;;;36.20;1.00;;;;;;5076400;28;19999;-75
2023/03/27 10:26:04;;;;;;;;;;;36.80;1.00;;;;;;5076051;28;20001;-75
2023/03/27 10:28:37;;;;;;;;;;;37.60;1.00;;;;;;5075817;28;20066;-76
2023/03/27 10:31:23;;;;;;;;;;;38.30;1.00;;;;;;5075358;28;19919;-74
2023/03/27 10:33:50;;;;;;;;;;;36.80;1.00;;;;;;5074621;28;19913;-74
2023/03/27 10:36:17;;;;;;;;;;;37.80;1.00;;;;;;5075536;28;20395;-76
2023/03/27 10:38:52;;;;;;;;;;;38.90;1.00;;;;;;5075563;28;19995;-76
2023/03/27 10:41:19;;;;;;;;;;;40.20;1.00;;;;;;5074959;28;19920;-75
2023/03/27 10:43:47;;;;;;;;;;;39.60;1.00;;;;;;5075631;28;19915;-75
2023/03/27 10:46:18;;;;;;;;;;;40.10;1.00;;;;;;5075275;28;20284;-75
2023/03/27 10:49:03;;;;;;;;;;;40.10;1.00;;;;;;5075556;28;19959;-75
2023/03/27 10:51:35;;;;;;;;;;;37.60;1.00;;;;;;5075200;28;19913;-75
2023/03/27 10:54:20;;;;;;;;;;;34.60;1.00;;;;;;5075798;28;19991;-74
2023/03/27 10:57:09;;;;;;;;;;;37.50;1.00;;;;;;5075046;28;19908;-75
2023/03/27 10:59:51;;;;;;;;;;;34.60;1.00;;;;;;5075050;28;19974;-74
2023/03/27 11:02:30;;;;;;;;;;;32.60;1.00;;;;;;5075008;28;20043;-74
2023/03/27 11:05:17;;;;;;;;;;;33.30;1.00;;;;;;5075127;28;19909;-74
2023/03/27 11:07:49;;;;;;;;;;;32.90;1.00;;;;;;5075123;28;19908;-75
2023/03/27 11:10:20;;;;;;;;;;;36.60;1.00;;;;;;5075013;28;19920;-74
2023/03/27 11:12:58;;;;;;;;;;;37.20;1.00;;;;;;5074134;28;19908;-74
2023/03/27 11:15:48;;;;;;;;;;;31.80;2.90;;;;;;5074776;28;19909;-75
2023/03/27 11:18:15;;;;;;;;;;;;;;;;;;5075123;28;19908;-76
2023/03/27 11:20:50;;;;;;;;;;;23.40;18.00;;;;;;5074654;28;19967;-76
2023/03/27 11:23:17;;;;;;;;;;;;;;;;;;5073371;28;20373;-75
2023/03/27 11:25:49;;;;;;;;;;;24.90;65.40;;;;;;5074545;28;20431;-76
2023/03/27 11:28:33;;;;;;;;;;;29.20;46.40;;;;;;5074667;28;19913;-77
2023/03/27 11:31:05;;;;;;;;;;;31.40;37.20;;;;;;5074675;28;19994;-77
2023/03/27 11:33:40;;;;;;;;;;;33.40;32.70;;;;;;5074705;28;19912;-77
2023/03/27 11:36:21;;;;;;;;;;;34.80;31.30;;;;;;5074597;28;20308;-75
2023/03/27 11:39:01;;;;;;;;;;;36.80;26.20;;;;;;5072895;28;19915;-77
2023/03/27 11:41:28;;;;;;;;;;;34.40;26.40;;;;;;5073988;28;20411;-75
2023/03/27 11:43:55;;;;;;;;;;;;;;;;;;5074341;28;19912;-76
2023/03/27 11:46:26;;;;;;;;;;;34.10;44.70;;;;;;5074486;28;19917;-76
2023/03/27 11:49:15;;;;;;;;;;;35.70;36.80;;;;;;5074304;28;19915;-76
2023/03/27 11:51:42;;;;;;;;;;;;;;;;;;5074229;28;19972;-76
2023/03/27 11:54:10;;;;;;;;;;;;;;;;;;5074068;28;19908;-76
2023/03/27 11:56:38;;;;;;;;;;;;;;;;;;5074074;28;19908;-76
2023/03/27 11:59:06;;;;;;;;;;;;;;;;;;5073986;28;19916;-77
2023/03/27 12:01:37;;;;;;;;;;;;;;;;;;5073879;28;19968;-76
2023/03/27 12:04:04;;;;;;;;;;;;;;;;;;5074140;28;19915;-76
2023/03/27 12:06:37;;;;;;;;;;;31.00;36.60;;;;;;5073913;28;19926;-75
2023/03/27 12:09:30;;;;;;;;;;;26.20;16.80;;;;;;5073843;28;20003;-74
2023/03/27 12:12:09;;;;;;;;;;;23.60;54.50;;;;;;5065321;28;20388;-74
2023/03/27 12:14:39;;;;;;;;;;;22.50;62.10;;;;;;5073901;28;19915;-75
2023/03/27 12:17:27;;;;;;;;;;;22.00;58.70;;;;;;5074068;28;19952;-73
2023/03/27 12:19:58;;;;;;;;;;;21.30;51.80;;;;;;5073860;28;19923;-74
2023/03/27 12:22:35;;;;;;;;;;;21.40;51.90;;;;;;5073907;28;19999;-74
2023/03/27 12:25:02;;;;;;;;;;;;;;;;;;5073847;28;19921;-75
2023/03/27 12:27:46;;;;;;;;;;;21.80;61.00;;;;;;5073877;28;19948;-74
2023/03/27 12:30:13;;;;;;;;;;;;;;;;;;5073628;28;19909;-74
2023/03/27 12:32:43;;;;;;;;;;;21.60;45.30;;;;;;5074042;28;19915;-76
2023/03/27 12:35:16;;;;;;;;;;;28.40;35.40;;;;;;5073846;28;19991;-75
2023/03/27 12:37:46;;;;;;;;;;;32.30;35.90;;;;;;5073667;28;20388;-76
2023/03/27 12:40:26;;;;;;;;;;;30.40;40.00;;;;;;5073263;28;19921;-76
2023/03/27 12:42:53;;;;;;;;;;;30.60;39.90;;;;;;5073884;28;19966;-76
2023/03/27 12:45:22;;;;;;;;;;;28.20;44.40;;;;;;5073606;28;19931;-76
2023/03/27 12:48:08;;;;;;;;;;;34.70;39.90;;;;;;5073849;28;19908;-77
2023/03/27 12:50:55;;;;;;;;;;;39.90;36.40;;;;;;5073725;28;19912;-77
2023/03/27 12:53:22;;;;;;;;;;;;;;;;;;5073187;28;19947;-75
2023/03/27 12:56:11;;;;;;;;;;;41.10;23.80;;;;;;5072070;28;20336;-75
2023/03/27 12:58:42;;;;;;;;;;;41.50;29.40;;;;;;5073306;28;20299;-74
2023/03/27 13:01:10;;;;;;;;;;;37.50;31.60;;;;;;5073625;28;19916;-74
2023/03/27 13:04:03;;;;;;;;;;;32.50;34.90;;;;;;5073402;28;20264;-74
2023/03/27 13:06:35;;;;;;;;;;;35.10;24.20;;;;;;5064852;28;19908;-74
2023/03/27 13:09:08;;;;;;;;;;;35.00;29.80;;;;;;5073241;28;20384;-75
2023/03/27 13:11:35;;;;;;;;;;;;;;;;;;5073105;28;19958;-75
2023/03/27 13:14:03;;;;;;;;;;;24.30;69.10;;;;;;5073216;28;19919;-75
2023/03/27 13:16:33;;;;;;;;;;;24.60;59.80;;;;;;5073326;28;19912;-75
2023/03/27 13:19:14;;;;;;;;;;;29.00;28.00;;;;;;5073371;28;19908;-75
2023/03/27 13:21:48;;;;;;;;;;;29.30;23.90;;;;;;5073183;28;19913;-74
2023/03/27 13:24:34;;;;;;;;;;;27.30;25.50;;;;;;5073127;28;19947;-74
2023/03/27 13:27:07;;;;;;;;;;;27.10;25.70;;;;;;5073255;28;20404;-75
2023/03/27 13:29:34;;;;;;;;;;;27.50;27.20;;;;;;5073142;28;20353;-75
2023/03/27 13:32:06;;;;;;;;;;;28.20;27.30;;;;;;5073163;28;20011;-75
2023/03/27 13:34:40;;;;;;;;;;;27.70;28.50;;;;;;5073393;28;19912;-77
2023/03/27 13:37:15;;;;;;;;;;;31.40;25.00;;;;;;5076852;28;19909;-75
2023/03/27 13:40:10;;;;;;;;;;;31.70;24.30;;;;;;5076518;28;19916;-75
2023/03/27 13:42:38;;;;;;;;;;;30.60;25.00;;;;;;5076945;28;19909;-76
2023/03/27 13:45:24;;;;;;;;;;;34.70;23.50;;;;;;5076684;28;19908;-76
2023/03/27 13:47:51;;;;;;;;;;;36.70;23.10;;;;;;5076567;28;19931;-76
2023/03/27 13:50:30;;;;;;;;;;;37.80;24.20;;;;;;5076594;28;19909;-77
2023/03/27 13:53:15;;;;;;;;;;;38.50;21.60;;;;;;5076900;28;20392;-77
2023/03/27 13:55:54;;;;;;;;;;;37.50;26.20;;;;;;5076344;28;20334;-76
2023/03/27 13:58:21;;;;;;;;;;;;;;;;;;5076284;28;20352;-75
2023/03/27 14:01:00;;;;;;;;;;;30.60;16.30;;;;;;5076198;28;19909;-77
2023/03/27 14:03:46;;;;;;;;;;;32.20;17.10;;;;;;5076479;28;19955;-75
2023/03/27 14:06:22;;;;;;;;;;;30.20;14.50;;;;;;5076090;28;19997;-75
2023/03/27 14:08:58;;;;;;;;;;;32.30;22.20;;;;;;5076688;28;19908;-75
2023/03/27 14:11:30;;;;;;;;;;;34.20;35.20;;;;;;5075864;28;19912;-77
2023/03/27 14:13:57;;;;;;;;;;;32.30;20.50;;;;;;5074698;28;19947;-76
2023/03/27 14:16:26;;;;;;;;;;;34.30;17.70;;;;;;5076219;28;19915;-76
2023/03/27 14:19:05;;;;;;;;;;;34.80;16.80;;;;;;5075921;28;19999;-76
2023/03/27 14:21:48;;;;;;;;;;;34.50;16.80;;;;;;5075991;28;19913;-76
2023/03/27 14:24:31;;;;;;;;;;;34.30;17.40;;;;;;5075794;28;19916;-77
2023/03/27 14:26:59;;;;;;;;;;;34.80;16.90;;;;;;5075805;28;19942;-75
2023/03/27 14:29:27;;;;;;;;;;;35.30;18.00;;;;;;5075765;28;19915;-75
2023/03/27 14:32:00;;;;;;;;;;;34.60;18.90;;;;;;5075596;28;19912;-77
2023/03/27 14:34:33;;;;;;;;;;;33.70;20.60;;;;;;5075827;28;19912;-75
2023/03/27 14:37:21;;;;;;;;;;;34.20;21.40;;;;;;5075733;28;19912;-76
2023/03/27 14:40:01;;;;;;;;;;;33.20;22.70;;;;;;5075312;28;19962;-76
2023/03/27 14:42:29;;;;;;;;;;;33.60;22.70;;;;;;5075636;28;20373;-75
2023/03/27 14:45:09;;;;;;;;;;;33.40;23.50;;;;;;5075404;28;19915;-76
2023/03/27 14:47:36;;;;;;;;;;;31.70;23.80;;;;;;5074098;28;19916;-76
2023/03/27 14:50:12;;;;;;;;;;;32.20;26.60;;;;;;5075254;28;19908;-75